St. Elmo — WDG2405 — position and weather

sailwx.info

Track history (hours):
 
Tides and Currents Weather Stations Pressure Air Temp Water Temp Dewpoint Dewpoint Depression Visibility Wind Speed Wind Dir Waves Ship Positions

St. Elmo

Owner: Marquette Transportation Company Gulf-Inland, LLC, Jefferson, LA. More information available from US FCC via Universal Licensing System and Coast Guard Vessel Documentation Center.

Last reported at 2017-Apr-29 15:58 UTC. Time now 2017-Apr-29 17:17 UTC.
Position N 29°46' W 095°06'.

; draft 3 m.

Type: . MMSI: 367515330.

Date/timePositionNaut miles runAvg speedWind from/ knotsBaromVisibWave heightAir tempDewpointWater temp
2017-Apr-29 15:58N 29°46' W 095°06'0 0.0
2017-Apr-29 15:29N 29°46' W 095°06'0 0.0
2017-Apr-29 14:59N 29°46' W 095°06'0 0.0
2017-Apr-29 14:00N 29°46' W 095°06'0 0.0
2017-Apr-29 13:29N 29°46' W 095°06'0 0.0
2017-Apr-29 13:00N 29°46' W 095°06'0 0.0
2017-Apr-29 12:28N 29°46' W 095°06'0 0.0
2017-Apr-29 12:00N 29°46' W 095°06'0 0.0
2017-Apr-29 11:28N 29°46' W 095°06'0 0.0
2017-Apr-29 10:59N 29°46' W 095°06'0 0.0
2017-Apr-29 10:27N 29°46' W 095°06'0 0.0
2017-Apr-29 09:55N 29°46' W 095°06'0 0.0
2017-Apr-29 09:28N 29°46' W 095°06'0 0.0
2017-Apr-29 08:59N 29°46' W 095°06'0 0.0
2017-Apr-29 08:11N 29°46' W 095°06'0 0.0
2017-Apr-29 08:00N 29°46' W 095°06'0 0.0
2017-Apr-29 07:27N 29°46' W 095°06'0 0.0
2017-Apr-29 07:00N 29°46' W 095°06'0 0.0
2017-Apr-29 06:28N 29°46' W 095°06'3 1.7
2017-Apr-29 04:34N 29°44' W 095°09'1 6.3
2017-Apr-29 04:29N 29°44' W 095°09'4 0.7
2017-Apr-28 23:28N 29°46' W 095°05'0 0.0
2017-Apr-28 13:53N 29°46' W 095°05'1 1.3
2017-Apr-28 13:17N 29°46' W 095°04'2 5.7
2017-Apr-28 13:00N 29°44' W 095°03'2 4.9
2017-Apr-28 12:30N 29°43' W 095°01'3 5.5
2017-Apr-28 12:00N 29°41' W 094°59'3 5.5
2017-Apr-28 11:30N 29°38' W 094°58'3 5.3
2017-Apr-28 11:00N 29°36' W 094°57'3 5.6
2017-Apr-28 10:30N 29°34' W 094°55'3 5.6
2017-Apr-28 09:55N 29°31' W 094°53'  
Track history (hours):
 
Tides and Currents Weather Stations Pressure Air Temp Water Temp Dewpoint Dewpoint Depression Visibility Wind Speed Wind Dir Waves Ship Positions

St. Elmo

Owner: Marquette Transportation Company Gulf-Inland, LLC, Jefferson, LA. More information available from US FCC via Universal Licensing System and Coast Guard Vessel Documentation Center.

Last reported at 2017-Apr-29 15:58 UTC. Time now 2017-Apr-29 17:17 UTC.
Position N 29°46' W 095°06'.

; draft 3 m.

Type: . MMSI: 367515330.

Date/timePositionNaut miles runAvg speedWind from/ knotsBaromVisibWave heightAir tempDewpointWater temp
2017-Apr-29 15:58N 29°46' W 095°06'0 0.0
2017-Apr-29 15:29N 29°46' W 095°06'0 0.0
2017-Apr-29 14:59N 29°46' W 095°06'0 0.0
2017-Apr-29 14:00N 29°46' W 095°06'0 0.0
2017-Apr-29 13:29N 29°46' W 095°06'0 0.0
2017-Apr-29 13:00N 29°46' W 095°06'0 0.0
2017-Apr-29 12:28N 29°46' W 095°06'0 0.0
2017-Apr-29 12:00N 29°46' W 095°06'0 0.0
2017-Apr-29 11:28N 29°46' W 095°06'0 0.0
2017-Apr-29 10:59N 29°46' W 095°06'0 0.0
2017-Apr-29 10:27N 29°46' W 095°06'0 0.0
2017-Apr-29 09:55N 29°46' W 095°06'0 0.0
2017-Apr-29 09:28N 29°46' W 095°06'0 0.0
2017-Apr-29 08:59N 29°46' W 095°06'0 0.0
2017-Apr-29 08:11N 29°46' W 095°06'0 0.0
2017-Apr-29 08:00N 29°46' W 095°06'0 0.0
2017-Apr-29 07:27N 29°46' W 095°06'0 0.0
2017-Apr-29 07:00N 29°46' W 095°06'0 0.0
2017-Apr-29 06:28N 29°46' W 095°06'3 1.7
2017-Apr-29 04:34N 29°44' W 095°09'1 6.3
2017-Apr-29 04:29N 29°44' W 095°09'4 0.7
2017-Apr-28 23:28N 29°46' W 095°05'0 0.0
2017-Apr-28 13:53N 29°46' W 095°05'1 1.3
2017-Apr-28 13:17N 29°46' W 095°04'2 5.7
2017-Apr-28 13:00N 29°44' W 095°03'2 4.9
2017-Apr-28 12:30N 29°43' W 095°01'3 5.5
2017-Apr-28 12:00N 29°41' W 094°59'3 5.5
2017-Apr-28 11:30N 29°38' W 094°58'3 5.3
2017-Apr-28 11:00N 29°36' W 094°57'3 5.6
2017-Apr-28 10:30N 29°34' W 094°55'3 5.6
2017-Apr-28 09:55N 29°31' W 094°53'  

Dump ship's entire track history